Allgood, Alabama
Current Conditions -  °F | °C
As of 4:35 PM on Friday 19 Dec 2014 (Local Time) from KGAD Reporting Station
Few Clouds Few Clouds  
Wind Chill:   Ceiling: Unl
Heat Index:   Visibility: 10mi
Dew Point: -1°   Wind: 7mph
Humidity: 57%   Direction: 340°NNW
Pressure: 30.16"   Gusts: NA
Location:  33.91°N, 86.51°W
Report Text: KGAD 192235Z 34006KT 10SM FEW100 07/M01 A3016 RMK AO1
Loading
Personal Weather Stations






























Interactive Weather Map New forecast layout! Learn more

10-Day Weather Forecast

Advertisements
Track Severe Weather on mobile